Time;durP1;ratioP1;P1;durP2;ratioP2;P2;SDS_P1;SDS_P2;PMS_P1;PMS_P2;Temp;Humidity;BMP_temperature;BMP_pressure;BME280_temperature;BME280_humidity;BME280_pressure;Samples;Min_cycle;Max_cycle;Signal;HPM_P1;HPM_P2
2023/05/28 00:00:10;;;;;;;;;12.50;12.00;;;;;;;;5052660;28;8855;-80
2023/05/28 00:02:39;;;;;;;;;13.25;13.25;;;;;;;;5046611;28;8875;-80
2023/05/28 00:05:07;;;;;;;;;14.75;13.00;;;;;;;;5063358;28;8978;-81
2023/05/28 00:07:35;;;;;;;;;13.25;13.25;;;;;;;;5043404;28;8855;-82
2023/05/28 00:10:02;;;;;;;;;14.25;14.25;;;;;;;;5055586;28;8846;-80
2023/05/28 00:12:30;;;;;;;;;14.00;12.50;;;;;;;;5051316;28;8848;-81
2023/05/28 00:14:58;;;;;;;;;16.00;15.50;;;;;;;;5053043;28;8856;-81
2023/05/28 00:17:27;;;;;;;;;17.00;14.00;;;;;;;;5055683;28;8836;-81
2023/05/28 00:19:55;;;;;;;;;16.50;15.75;;;;;;;;5050690;28;8854;-80
2023/05/28 00:22:25;;;;;;;;;16.75;15.00;;;;;;;;5050967;28;8856;-81
2023/05/28 00:24:55;;;;;;;;;15.50;12.50;;;;;;;;5050573;28;8923;-81
2023/05/28 00:27:23;;;;;;;;;11.75;10.00;;;;;;;;5049904;28;8907;-81
2023/05/28 00:29:50;;;;;;;;;14.75;13.00;;;;;;;;5050718;28;8867;-81
2023/05/28 00:32:20;;;;;;;;;12.00;12.00;;;;;;;;5049942;28;8816;-81
2023/05/28 00:34:49;;;;;;;;;16.33;15.67;;;;;;;;5051198;28;8866;-79
2023/05/28 00:37:17;;;;;;;;;9.75;9.75;;;;;;;;5042983;28;9072;-82
2023/05/28 00:39:44;;;;;;;;;16.33;14.33;;;;;;;;5058491;28;8859;-82
2023/05/28 00:42:12;;;;;;;;;18.00;13.67;;;;;;;;5050590;28;8952;-79
2023/05/28 00:44:41;;;;;;;;;17.33;14.33;;;;;;;;5050238;28;9088;-81
2023/05/28 00:47:08;;;;;;;;;17.00;15.00;;;;;;;;5057866;28;9082;-81
2023/05/28 00:49:36;;;;;;;;;14.33;14.33;;;;;;;;5050916;28;9035;-80
2023/05/28 00:52:06;;;;;;;;;16.33;14.00;;;;;;;;5057194;28;9001;-80
2023/05/28 00:54:34;;;;;;;;;16.33;13.67;;;;;;;;5052254;28;9019;-80
2023/05/28 00:57:02;;;;;;;;;17.00;14.33;;;;;;;;5050848;28;9124;-82
2023/05/28 00:59:30;;;;;;;;;16.67;15.00;;;;;;;;5050390;28;8940;-81
2023/05/28 01:01:58;;;;;;;;;12.00;12.00;;;;;;;;5047234;28;8947;-80
2023/05/28 01:04:29;;;;;;;;;17.33;14.00;;;;;;;;5050374;28;9125;-80
2023/05/28 01:06:57;;;;;;;;;15.33;12.33;;;;;;;;5050546;28;9821;-81
2023/05/28 01:09:27;;;;;;;;;14.00;14.00;;;;;;;;5050136;28;9170;-80
2023/05/28 01:11:54;;;;;;;;;19.67;14.67;;;;;;;;5049755;28;9002;-80
2023/05/28 01:14:25;;;;;;;;;17.67;14.00;;;;;;;;5049743;28;9088;-81
2023/05/28 01:16:53;;;;;;;;;21.67;17.67;;;;;;;;5054114;28;9109;-80
2023/05/28 01:19:27;;;;;;;;;18.33;18.33;;;;;;;;5044983;28;9100;-80
2023/05/28 01:22:00;;;;;;;;;19.00;16.00;;;;;;;;5050716;28;9341;-80
2023/05/28 01:24:29;;;;;;;;;15.67;13.67;;;;;;;;5057117;28;9314;-79
2023/05/28 01:26:57;;;;;;;;;19.00;16.00;;;;;;;;5054360;28;9169;-81
2023/05/28 01:29:25;;;;;;;;;17.00;15.67;;;;;;;;5059061;28;9298;-81
2023/05/28 01:31:52;;;;;;;;;14.75;14.25;;;;;;;;5040341;28;9190;-81
2023/05/28 01:34:20;;;;;;;;;16.25;15.75;;;;;;;;5050016;28;10221;-80
2023/05/28 01:36:52;;;;;;;;;14.00;12.67;;;;;;;;5049976;28;9456;-81
2023/05/28 01:39:20;;;;;;;;;19.25;17.25;;;;;;;;5049992;28;10274;-80
2023/05/28 01:41:51;;;;;;;;;17.50;15.50;;;;;;;;5048185;28;9577;-81
2023/05/28 01:44:20;;;;;;;;;17.75;14.50;;;;;;;;5045222;28;9463;-80
2023/05/28 01:46:49;;;;;;;;;17.50;14.50;;;;;;;;5049286;28;9484;-81
2023/05/28 01:49:18;;;;;;;;;14.75;14.75;;;;;;;;5050020;28;9546;-80
2023/05/28 01:51:45;;;;;;;;;13.25;13.25;;;;;;;;5049859;28;9562;-80
2023/05/28 01:54:15;;;;;;;;;20.50;20.50;;;;;;;;5050658;28;9629;-80
2023/05/28 01:56:42;;;;;;;;;17.50;16.75;;;;;;;;5039353;28;9815;-79
2023/05/28 01:59:11;;;;;;;;;15.50;15.50;;;;;;;;5025259;28;9845;-81
2023/05/28 02:01:39;;;;;;;;;15.75;15.75;;;;;;;;5015206;28;9835;-81
2023/05/28 02:04:06;;;;;;;;;19.00;17.00;;;;;;;;5030737;28;10672;-80
2023/05/28 02:06:34;;;;;;;;;18.25;15.75;;;;;;;;5029818;28;9872;-79
2023/05/28 02:09:02;;;;;;;;;13.00;13.00;;;;;;;;5029142;28;9921;-80
2023/05/28 02:11:29;;;;;;;;;23.50;17.75;;;;;;;;5039454;28;9784;-81
2023/05/28 02:13:57;;;;;;;;;22.50;22.50;;;;;;;;5027622;28;10645;-81
2023/05/28 02:16:27;;;;;;;;;18.50;15.75;;;;;;;;5020456;28;10838;-81
2023/05/28 02:18:54;;;;;;;;;19.25;17.50;;;;;;;;5032851;28;10230;-81
2023/05/28 02:21:21;;;;;;;;;16.00;14.50;;;;;;;;5028209;28;9923;-80
2023/05/28 02:23:50;;;;;;;;;21.25;18.25;;;;;;;;5029046;28;9935;-81
2023/05/28 02:26:20;;;;;;;;;18.25;18.00;;;;;;;;5026096;28;9966;-81
2023/05/28 02:28:47;;;;;;;;;21.75;18.00;;;;;;;;5028477;28;10101;-81
2023/05/28 02:31:14;;;;;;;;;13.50;13.25;;;;;;;;5027230;28;10119;-82
2023/05/28 02:33:43;;;;;;;;;21.75;18.25;;;;;;;;5026611;28;10009;-81
2023/05/28 02:36:12;;;;;;;;;17.00;13.50;;;;;;;;5031347;28;10157;-82
2023/05/28 02:38:39;;;;;;;;;18.25;15.00;;;;;;;;5040247;28;10190;-81
2023/05/28 02:41:07;;;;;;;;;18.00;18.00;;;;;;;;5033266;28;10181;-80
2023/05/28 02:43:34;;;;;;;;;17.00;16.00;;;;;;;;5037729;28;11154;-81
2023/05/28 02:46:02;;;;;;;;;16.25;14.75;;;;;;;;5030501;28;10361;-81
2023/05/28 02:48:29;;;;;;;;;18.75;17.00;;;;;;;;5032581;28;10330;-81
2023/05/28 02:50:58;;;;;;;;;14.75;14.75;;;;;;;;5033394;28;10271;-81
2023/05/28 02:53:27;;;;;;;;;28.25;23.50;;;;;;;;5033020;28;10246;-80
2023/05/28 02:55:54;;;;;;;;;21.75;18.50;;;;;;;;5028428;28;10501;-80
2023/05/28 02:58:21;;;;;;;;;21.00;18.75;;;;;;;;5057564;28;10508;-80
2023/05/28 03:00:48;;;;;;;;;18.00;16.75;;;;;;;;5049282;28;10307;-80
2023/05/28 03:03:16;;;;;;;;;19.00;14.50;;;;;;;;5057591;28;10376;-82
2023/05/28 03:05:43;;;;;;;;;20.75;18.50;;;;;;;;5054436;28;10136;-79
2023/05/28 03:08:13;;;;;;;;;14.50;14.00;;;;;;;;5054071;28;10320;-79
2023/05/28 03:10:41;;;;;;;;;18.00;18.00;;;;;;;;5053853;28;10314;-79
2023/05/28 03:13:08;;;;;;;;;25.50;22.50;;;;;;;;5051788;28;10450;-78
2023/05/28 03:15:36;;;;;;;;;18.25;14.25;;;;;;;;5051526;28;10334;-80
2023/05/28 03:18:03;;;;;;;;;26.00;21.00;;;;;;;;5054651;28;11180;-80
2023/05/28 03:20:31;;;;;;;;;27.25;22.75;;;;;;;;5058908;28;11143;-82
2023/05/28 03:22:59;;;;;;;;;25.75;21.50;;;;;;;;5060121;28;10530;-80
2023/05/28 03:25:28;;;;;;;;;23.25;22.75;;;;;;;;5051635;28;10485;-81
2023/05/28 03:27:55;;;;;;;;;24.00;22.25;;;;;;;;5050684;28;10450;-81
2023/05/28 03:30:23;;;;;;;;;23.50;21.50;;;;;;;;5052114;28;10415;-80
2023/05/28 03:32:50;;;;;;;;;21.50;21.00;;;;;;;;5060734;28;10342;-80
2023/05/28 03:35:18;;;;;;;;;25.75;23.00;;;;;;;;5049352;28;10341;-81
2023/05/28 03:37:48;;;;;;;;;25.50;20.25;;;;;;;;5053021;28;10266;-81
2023/05/28 03:40:15;;;;;;;;;21.25;21.00;;;;;;;;5042205;28;11027;-80
2023/05/28 03:42:44;;;;;;;;;19.75;18.25;;;;;;;;5053827;28;10174;-80
2023/05/28 03:45:12;;;;;;;;;24.50;19.00;;;;;;;;5057602;28;10273;-81
2023/05/28 03:47:39;;;;;;;;;20.25;19.00;;;;;;;;5041727;28;10272;-82
2023/05/28 03:50:07;;;;;;;;;21.50;20.25;;;;;;;;5062774;28;10476;-80
2023/05/28 03:52:34;;;;;;;;;24.25;21.50;;;;;;;;5049197;28;10184;-81
2023/05/28 03:55:02;;;;;;;;;23.75;20.75;;;;;;;;5059559;28;10411;-81
2023/05/28 03:57:31;;;;;;;;;17.25;16.50;;;;;;;;5058525;28;10028;-83
2023/05/28 04:00:00;;;;;;;;;21.00;21.00;;;;;;;;5054536;28;10199;-81
2023/05/28 04:02:30;;;;;;;;;21.50;21.50;;;;;;;;5051794;28;10204;-82
2023/05/28 04:04:59;;;;;;;;;23.00;22.75;;;;;;;;5050075;28;10261;-81
2023/05/28 04:07:27;;;;;;;;;20.00;17.50;;;;;;;;5061864;28;10217;-80
2023/05/28 04:09:54;;;;;;;;;25.50;21.75;;;;;;;;5061977;28;10494;-79
2023/05/28 04:12:22;;;;;;;;;23.25;22.00;;;;;;;;5065708;28;10330;-83
2023/05/28 04:14:50;;;;;;;;;26.25;25.25;;;;;;;;5068824;28;10249;-80
2023/05/28 04:17:20;;;;;;;;;24.25;23.50;;;;;;;;5067516;28;10457;-82
2023/05/28 04:19:48;;;;;;;;;24.75;24.75;;;;;;;;5067223;28;10332;-80
2023/05/28 04:22:15;;;;;;;;;24.00;24.00;;;;;;;;5067930;28;10419;-80
2023/05/28 04:24:43;;;;;;;;;25.50;21.75;;;;;;;;5058795;28;10424;-78
2023/05/28 04:27:10;;;;;;;;;23.75;19.25;;;;;;;;5049941;28;10357;-81
2023/05/28 04:29:37;;;;;;;;;21.25;21.25;;;;;;;;5050805;28;10339;-81
2023/05/28 04:32:08;;;;;;;;;22.50;20.50;;;;;;;;5060859;28;10569;-79
2023/05/28 04:34:40;;;;;;;;;26.50;24.25;;;;;;;;5050251;28;10463;-82
2023/05/28 04:37:08;;;;;;;;;23.25;22.25;;;;;;;;5054739;28;10350;-82
2023/05/28 04:39:37;;;;;;;;;22.00;21.00;;;;;;;;5061080;28;10376;-82
2023/05/28 04:42:07;;;;;;;;;25.50;21.00;;;;;;;;5056299;28;10931;-81
2023/05/28 04:44:35;;;;;;;;;23.75;23.00;;;;;;;;5062127;28;10303;-79
2023/05/28 04:47:09;;;;;;;;;26.00;23.75;;;;;;;;5049703;28;10266;-81
2023/05/28 04:49:39;;;;;;;;;26.75;24.50;;;;;;;;5050778;28;10456;-80
2023/05/28 04:52:06;;;;;;;;;24.00;22.25;;;;;;;;5050598;28;10377;-81
2023/05/28 04:54:33;;;;;;;;;22.75;18.75;;;;;;;;5050598;28;10418;-80
2023/05/28 04:57:02;;;;;;;;;22.00;21.00;;;;;;;;5051921;28;10315;-79
2023/05/28 04:59:37;;;;;;;;;27.00;25.25;;;;;;;;5048068;28;10099;-80
2023/05/28 05:02:08;;;;;;;;;22.50;21.00;;;;;;;;5065038;28;10260;-80
2023/05/28 05:04:37;;;;;;;;;22.75;21.75;;;;;;;;5044154;28;10169;-80
2023/05/28 05:07:08;;;;;;;;;26.50;23.50;;;;;;;;5057624;28;10337;-81
2023/05/28 05:09:35;;;;;;;;;23.00;23.00;;;;;;;;5049037;28;10980;-82
2023/05/28 05:12:02;;;;;;;;;27.00;23.75;;;;;;;;5054061;28;10171;-82
2023/05/28 05:14:30;;;;;;;;;22.75;20.25;;;;;;;;5047952;28;10182;-82
2023/05/28 05:16:57;;;;;;;;;24.25;22.50;;;;;;;;5049566;28;10180;-82
2023/05/28 05:19:25;;;;;;;;;25.00;23.25;;;;;;;;5055761;28;10168;-80
2023/05/28 05:21:54;;;;;;;;;23.00;22.75;;;;;;;;5046910;28;10285;-80
2023/05/28 05:24:24;;;;;;;;;27.75;26.25;;;;;;;;5045231;28;10238;-80
2023/05/28 05:26:51;;;;;;;;;28.25;25.00;;;;;;;;5046255;28;10202;-77
2023/05/28 05:29:18;;;;;;;;;26.25;23.00;;;;;;;;5053081;28;10319;-79
2023/05/28 05:31:46;;;;;;;;;29.25;26.50;;;;;;;;5050718;28;10071;-78
2023/05/28 05:34:13;;;;;;;;;29.00;28.00;;;;;;;;5066115;28;10244;-82
2023/05/28 05:36:43;;;;;;;;;33.25;31.75;;;;;;;;5056710;28;10331;-83
2023/05/28 05:39:19;;;;;;;;;26.75;24.25;;;;;;;;5054436;28;10466;-83
2023/05/28 05:41:47;;;;;;;;;24.50;23.00;;;;;;;;5052298;28;10419;-82
2023/05/28 05:44:14;;;;;;;;;28.50;27.00;;;;;;;;5053736;28;10294;-83
2023/05/28 05:46:41;;;;;;;;;22.00;21.75;;;;;;;;5048917;28;10249;-80
2023/05/28 05:49:09;;;;;;;;;25.50;25.50;;;;;;;;5053902;28;10178;-76
2023/05/28 05:51:36;;;;;;;;;30.25;27.25;;;;;;;;5053595;28;10283;-81
2023/05/28 05:54:04;;;;;;;;;26.25;25.25;;;;;;;;5050661;28;10217;-79
2023/05/28 05:56:33;;;;;;;;;23.50;21.50;;;;;;;;5056250;28;10145;-80
2023/05/28 05:59:01;;;;;;;;;31.75;29.75;;;;;;;;5049783;28;10097;-82
2023/05/28 06:01:29;;;;;;;;;30.00;28.50;;;;;;;;5047152;28;10044;-80
2023/05/28 06:04:00;;;;;;;;;22.50;22.50;;;;;;;;5047406;28;10107;-80
2023/05/28 06:06:28;;;;;;;;;28.50;25.25;;;;;;;;5050439;28;9755;-82
2023/05/28 06:08:55;;;;;;;;;25.75;22.00;;;;;;;;5052757;28;9833;-82
2023/05/28 06:11:26;;;;;;;;;32.00;27.75;;;;;;;;5058575;28;9744;-81
2023/05/28 06:13:55;;;;;;;;;25.50;25.25;;;;;;;;5049699;28;10033;-81
2023/05/28 06:16:23;;;;;;;;;23.00;23.00;;;;;;;;5058420;28;9768;-82
2023/05/28 06:18:51;;;;;;;;;29.50;29.50;;;;;;;;5047644;28;9617;-83
2023/05/28 06:21:21;;;;;;;;;27.50;26.00;;;;;;;;5048588;28;9875;-80
2023/05/28 06:23:48;;;;;;;;;32.50;24.25;;;;;;;;5052462;28;9618;-80
2023/05/28 06:26:16;;;;;;;;;22.00;20.75;;;;;;;;5050575;28;9605;-80
2023/05/28 06:28:43;;;;;;;;;27.50;26.25;;;;;;;;5049905;28;9537;-81
2023/05/28 06:31:13;;;;;;;;;24.00;24.00;;;;;;;;5049580;28;9398;-80
2023/05/28 06:33:40;;;;;;;;;28.25;28.25;;;;;;;;5052157;28;9481;-79
2023/05/28 06:36:08;;;;;;;;;26.00;24.33;;;;;;;;5050661;28;9659;-86
2023/05/28 06:38:35;;;;;;;;;27.33;23.67;;;;;;;;5058675;28;9462;-79
2023/05/28 06:41:03;;;;;;;;;30.00;30.00;;;;;;;;5045510;28;9487;-79
2023/05/28 06:43:30;;;;;;;;;31.50;24.50;;;;;;;;5044972;28;9482;-78
2023/05/28 06:45:57;;;;;;;;;23.33;21.67;;;;;;;;5049067;28;10381;-76
2023/05/28 06:48:26;;;;;;;;;32.33;28.00;;;;;;;;5060328;28;9436;-80
2023/05/28 06:50:59;;;;;;;;;30.00;30.00;;;;;;;;5072253;28;9312;-83
2023/05/28 06:53:29;;;;;;;;;28.33;27.67;;;;;;;;5051205;28;9309;-81
2023/05/28 06:55:58;;;;;;;;;31.67;30.33;;;;;;;;5054533;28;9294;-80
2023/05/28 06:58:30;;;;;;;;;29.00;27.67;;;;;;;;5049044;28;9374;-82
2023/05/28 07:01:01;;;;;;;;;28.67;26.67;;;;;;;;5051291;28;9186;-79
2023/05/28 07:03:30;;;;;;;;;28.33;25.67;;;;;;;;5050768;28;9400;-79
2023/05/28 07:05:57;;;;;;;;;23.00;20.67;;;;;;;;5048189;28;9214;-80
2023/05/28 07:08:29;;;;;;;;;29.00;25.00;;;;;;;;5045487;28;9083;-80
2023/05/28 07:10:59;;;;;;;;;29.67;25.00;;;;;;;;5053977;28;9072;-83
2023/05/28 07:13:26;;;;;;;;;22.00;20.50;;;;;;;;5061178;28;9757;-79
2023/05/28 07:15:55;;;;;;;;;25.75;24.75;;;;;;;;5056089;28;8846;-81
2023/05/28 07:18:27;;;;;;;;;25.25;23.50;;;;;;;;5057985;28;8836;-82
2023/05/28 07:20:56;;;;;;;;;25.67;25.33;;;;;;;;5054339;28;9485;-82
2023/05/28 07:23:25;;;;;;;;;25.00;24.50;;;;;;;;5047816;28;8936;-82
2023/05/28 07:25:53;;;;;;;;;23.25;20.00;;;;;;;;5046797;28;8856;-82
2023/05/28 07:28:20;;;;;;;;;23.25;23.25;;;;;;;;5047375;28;8845;-80
2023/05/28 07:30:48;;;;;;;;;26.25;23.75;;;;;;;;5048051;28;8850;-82
2023/05/28 07:33:16;;;;;;;;;21.00;21.00;;;;;;;;5050667;28;8840;-79
2023/05/28 07:35:44;;;;;;;;;23.00;22.50;;;;;;;;5048889;28;8864;-81
2023/05/28 07:38:14;;;;;;;;;22.50;21.00;;;;;;;;5052326;28;8867;-82
2023/05/28 07:40:41;;;;;;;;;21.50;19.75;;;;;;;;5051675;28;8833;-82
2023/05/28 07:43:09;;;;;;;;;26.25;24.75;;;;;;;;5052484;28;9411;-83
2023/05/28 07:45:36;;;;;;;;;19.75;19.00;;;;;;;;5048143;28;8858;-79
2023/05/28 07:48:04;;;;;;;;;23.25;20.00;;;;;;;;5051635;28;8840;-80
2023/05/28 07:50:31;;;;;;;;;23.50;22.00;;;;;;;;5052061;28;8840;-79
2023/05/28 07:52:58;;;;;;;;;17.75;16.75;;;;;;;;5050348;28;8878;-77
2023/05/28 07:55:27;;;;;;;;;18.50;17.75;;;;;;;;5049466;28;8974;-80
2023/05/28 07:57:55;;;;;;;;;21.25;19.00;;;;;;;;5049672;28;8846;-79
2023/05/28 08:00:22;;;;;;;;;20.50;17.00;;;;;;;;5049686;28;8880;-76
2023/05/28 08:02:50;;;;;;;;;18.00;15.00;;;;;;;;5052068;28;8817;-78
2023/05/28 08:05:18;;;;;;;;;17.75;17.25;;;;;;;;5050637;28;8959;-76
2023/05/28 08:07:45;;;;;;;;;17.25;16.50;;;;;;;;5050883;28;8844;-76
2023/05/28 08:10:13;;;;;;;;;15.00;13.75;;;;;;;;5051145;28;8882;-77
2023/05/28 08:12:42;;;;;;;;;24.25;18.00;;;;;;;;5049146;28;8848;-78
2023/05/28 08:15:10;;;;;;;;;16.25;16.25;;;;;;;;5049976;28;8874;-77
2023/05/28 08:17:40;;;;;;;;;16.00;16.00;;;;;;;;5046849;28;8836;-78
2023/05/28 08:20:11;;;;;;;;;19.00;17.50;;;;;;;;5051579;28;8928;-77
2023/05/28 08:22:40;;;;;;;;;20.50;19.00;;;;;;;;5054526;28;8839;-77
2023/05/28 08:25:08;;;;;;;;;17.00;17.00;;;;;;;;5049960;28;8848;-77
2023/05/28 08:27:37;;;;;;;;;14.75;14.75;;;;;;;;5046433;28;8900;-78
2023/05/28 08:30:08;;;;;;;;;18.00;15.25;;;;;;;;5050962;28;8830;-79
2023/05/28 08:32:35;;;;;;;;;19.25;18.25;;;;;;;;5056078;28;8872;-77
2023/05/28 08:35:02;;;;;;;;;19.50;18.00;;;;;;;;5053669;28;8884;-79
2023/05/28 08:37:30;;;;;;;;;17.00;15.50;;;;;;;;5048674;28;8864;-78
2023/05/28 08:39:58;;;;;;;;;16.20;13.40;;;;;;;;5050233;28;8871;-78
2023/05/28 08:42:27;;;;;;;;;15.80;14.00;;;;;;;;5053673;28;8829;-81
2023/05/28 08:44:56;;;;;;;;;13.80;13.80;;;;;;;;5057881;28;8882;-79
2023/05/28 08:47:25;;;;;;;;;15.00;14.60;;;;;;;;5049141;28;8922;-80
2023/05/28 08:49:56;;;;;;;;;14.40;14.40;;;;;;;;5049280;28;9671;-83
2023/05/28 08:52:25;;;;;;;;;14.40;14.00;;;;;;;;5048268;28;8863;-80
2023/05/28 08:54:53;;;;;;;;;14.20;13.00;;;;;;;;5058697;28;8831;-79
2023/05/28 08:57:22;;;;;;;;;13.40;13.40;;;;;;;;5049828;28;8891;-79
2023/05/28 08:59:50;;;;;;;;;12.00;12.00;;;;;;;;5049804;28;8958;-80
2023/05/28 09:02:18;;;;;;;;;15.40;13.40;;;;;;;;5046136;28;8793;-78
2023/05/28 09:04:47;;;;;;;;;69.25;59.25;;;;;;;;5042849;28;8840;-78
2023/05/28 09:07:14;;;;;;;;;93.20;88.20;;;;;;;;5048339;28;11677;-79
2023/05/28 09:09:42;;;;;;;;;186.80;174.60;;;;;;;;5050135;28;8847;-78
2023/05/28 09:12:12;;;;;;;;;110.40;104.60;;;;;;;;5051922;28;8905;-80
2023/05/28 09:14:42;;;;;;;;;519.60;477.60;;;;;;;;5051528;28;8973;-80
2023/05/28 09:17:09;;;;;;;;;56.00;52.20;;;;;;;;5048993;28;8844;-78
2023/05/28 09:19:37;;;;;;;;;538.20;503.80;;;;;;;;5052706;28;9657;-80
2023/05/28 09:22:06;;;;;;;;;426.00;394.60;;;;;;;;5053485;28;8938;-80
2023/05/28 09:24:38;;;;;;;;;17.60;17.20;;;;;;;;5047467;28;9622;-81
2023/05/28 09:27:08;;;;;;;;;13.00;12.20;;;;;;;;5048988;28;8836;-81
2023/05/28 09:29:35;;;;;;;;;12.80;10.00;;;;;;;;5048445;28;8844;-82
2023/05/28 09:32:03;;;;;;;;;9.00;9.00;;;;;;;;5047888;28;8907;-80
2023/05/28 09:34:31;;;;;;;;;8.80;6.60;;;;;;;;5042868;28;8862;-80
2023/05/28 09:37:02;;;;;;;;;8.00;6.00;;;;;;;;5044650;28;8921;-80
2023/05/28 09:39:31;;;;;;;;;8.80;8.20;;;;;;;;5033864;28;8969;-80
2023/05/28 09:42:08;;;;;;;;;9.80;8.00;;;;;;;;5046269;28;8840;-79
2023/05/28 09:44:37;;;;;;;;;21.80;15.40;;;;;;;;5049540;28;8925;-80
2023/05/28 09:47:14;;;;;;;;;22.40;20.60;;;;;;;;5054162;28;8848;-80
2023/05/28 09:49:45;;;;;;;;;24.60;23.00;;;;;;;;5049110;28;8933;-81
2023/05/28 09:52:17;;;;;;;;;12.20;12.20;;;;;;;;5038168;28;8840;-83
2023/05/28 09:54:48;;;;;;;;;7.20;7.20;;;;;;;;5048349;28;9680;-83
2023/05/28 09:57:16;;;;;;;;;8.20;8.20;;;;;;;;5029016;28;8861;-81
2023/05/28 09:59:45;;;;;;;;;8.40;8.40;;;;;;;;5030324;28;8846;-79
2023/05/28 10:02:24;;;;;;;;;11.40;10.00;;;;;;;;5029474;28;8838;-79
2023/05/28 10:04:55;;;;;;;;;11.00;9.40;;;;;;;;5029668;28;8982;-78
2023/05/28 10:07:25;;;;;;;;;7.80;7.80;;;;;;;;5006739;28;8906;-77
2023/05/28 10:09:55;;;;;;;;;8.40;8.00;;;;;;;;5031086;28;8928;-77
2023/05/28 10:12:26;;;;;;;;;9.20;9.20;;;;;;;;5039202;28;8852;-77
2023/05/28 10:14:54;;;;;;;;;26.60;24.80;;;;;;;;5030023;28;8850;-78
2023/05/28 10:17:22;;;;;;;;;10.60;10.60;;;;;;;;5039018;28;8872;-77
2023/05/28 10:19:49;;;;;;;;;8.00;6.20;;;;;;;;5042478;28;8864;-77
2023/05/28 10:22:17;;;;;;;;;8.20;8.20;;;;;;;;5038020;28;8876;-77
2023/05/28 10:24:45;;;;;;;;;11.40;11.40;;;;;;;;5026432;28;8865;-78
2023/05/28 10:27:18;;;;;;;;;11.80;10.80;;;;;;;;5028381;28;8866;-78
2023/05/28 10:29:47;;;;;;;;;9.80;8.00;;;;;;;;5028066;28;8854;-79
2023/05/28 10:32:15;;;;;;;;;7.40;6.20;;;;;;;;5029080;28;8822;-84
2023/05/28 10:34:43;;;;;;;;;6.80;6.80;;;;;;;;5028633;28;8866;-79
2023/05/28 10:37:12;;;;;;;;;6.40;5.60;;;;;;;;5028567;28;8941;-78
2023/05/28 10:39:45;;;;;;;;;8.00;6.60;;;;;;;;5046803;28;8852;-78
2023/05/28 10:42:20;;;;;;;;;10.00;8.80;;;;;;;;5034332;28;8850;-81
2023/05/28 10:45:06;;;;;;;;;19.80;17.80;;;;;;;;5022181;28;8859;-85
2023/05/28 10:47:34;;;;;;;;;8.00;8.00;;;;;;;;5029000;28;8846;-78
2023/05/28 10:50:11;;;;;;;;;10.20;7.40;;;;;;;;5039044;28;8852;-78
2023/05/28 10:52:55;;;;;;;;;9.40;8.20;;;;;;;;5027427;28;8963;-84
2023/05/28 10:55:22;;;;;;;;;10.00;10.00;;;;;;;;5047039;28;8842;-77
2023/05/28 10:57:55;;;;;;;;;10.40;7.60;;;;;;;;5055485;28;8856;-83
2023/05/28 11:00:24;;;;;;;;;10.40;10.40;;;;;;;;5050271;28;8845;-80
2023/05/28 11:02:53;;;;;;;;;7.80;7.60;;;;;;;;5050128;28;8824;-77
2023/05/28 11:05:24;;;;;;;;;8.00;8.00;;;;;;;;5055562;28;8873;-79
2023/05/28 11:07:55;;;;;;;;;8.80;7.00;;;;;;;;5055165;28;8844;-77
2023/05/28 11:10:23;;;;;;;;;7.00;7.00;;;;;;;;5039873;28;8847;-75
2023/05/28 11:12:52;;;;;;;;;10.60;10.00;;;;;;;;5054466;28;8824;-79
2023/05/28 11:15:21;;;;;;;;;10.00;8.40;;;;;;;;5052800;28;8963;-77
2023/05/28 11:17:49;;;;;;;;;12.40;12.40;;;;;;;;5051704;28;8967;-82
2023/05/28 11:20:18;;;;;;;;;15.60;14.40;;;;;;;;5051857;28;8890;-80
2023/05/28 11:22:46;;;;;;;;;11.80;11.80;;;;;;;;5038970;28;8999;-78
2023/05/28 11:25:15;;;;;;;;;8.80;7.00;;;;;;;;5050697;28;8937;-80
2023/05/28 11:27:44;;;;;;;;;7.80;7.80;;;;;;;;5051073;28;8864;-82
2023/05/28 11:30:16;;;;;;;;;6.20;6.20;;;;;;;;5052424;28;8876;-77
2023/05/28 11:32:44;;;;;;;;;7.60;7.60;;;;;;;;5050731;28;8863;-79
2023/05/28 11:35:12;;;;;;;;;10.00;8.00;;;;;;;;5051048;28;9436;-78
2023/05/28 11:37:41;;;;;;;;;7.60;7.00;;;;;;;;5051896;28;8927;-77
2023/05/28 11:40:10;;;;;;;;;10.60;10.60;;;;;;;;5052496;28;8852;-78
2023/05/28 11:42:39;;;;;;;;;6.20;6.20;;;;;;;;5055601;28;8852;-79
2023/05/28 11:45:07;;;;;;;;;8.20;8.20;;;;;;;;5057875;28;8840;-79
2023/05/28 11:47:37;;;;;;;;;7.60;7.60;;;;;;;;5047527;28;8830;-76
2023/05/28 11:50:10;;;;;;;;;4.80;4.00;;;;;;;;5046602;28;8972;-82
2023/05/28 11:52:40;;;;;;;;;5.00;5.00;;;;;;;;5061750;28;8856;-82
2023/05/28 11:55:09;;;;;;;;;4.40;4.40;;;;;;;;5058254;28;8843;-79
2023/05/28 11:57:38;;;;;;;;;5.00;5.00;;;;;;;;5059873;28;8929;-82
2023/05/28 12:00:10;;;;;;;;;5.00;5.00;;;;;;;;5051607;28;8914;-82
2023/05/28 12:02:47;;;;;;;;;5.40;5.40;;;;;;;;5055242;28;9582;-83
2023/05/28 12:05:15;;;;;;;;;7.00;4.60;;;;;;;;5062623;28;8856;-80
2023/05/28 12:07:46;;;;;;;;;5.40;5.40;;;;;;;;5053277;28;8941;-82
2023/05/28 12:10:14;;;;;;;;;6.40;4.40;;;;;;;;5056240;28;9644;-82
2023/05/28 12:12:43;;;;;;;;;9.20;7.40;;;;;;;;5062437;28;8884;-82
2023/05/28 12:15:11;;;;;;;;;5.80;5.80;;;;;;;;5065979;28;8819;-83
2023/05/28 12:17:39;;;;;;;;;5.60;5.60;;;;;;;;5056693;28;8852;-88
2023/05/28 12:20:31;;;;;;;;;4.00;4.00;;;;;;;;5047943;28;8834;-80
2023/05/28 12:23:07;;;;;;;;;4.20;4.20;;;;;;;;5046679;28;8840;-79
2023/05/28 12:25:47;;;;;;;;;5.80;4.00;;;;;;;;5052942;28;8828;-82
2023/05/28 12:28:16;;;;;;;;;4.40;4.40;;;;;;;;5050506;28;8875;-82
2023/05/28 12:30:45;;;;;;;;;4.60;4.00;;;;;;;;5049357;28;8819;-81
2023/05/28 12:33:13;;;;;;;;;6.80;5.00;;;;;;;;5050983;28;8868;-84
2023/05/28 12:35:44;;;;;;;;;5.80;5.80;;;;;;;;5051577;28;8838;-81
2023/05/28 12:38:12;;;;;;;;;3.00;3.00;;;;;;;;5038499;28;8872;-83
2023/05/28 12:41:04;;;;;;;;;4.40;4.40;;;;;;;;5049947;28;8870;-80
2023/05/28 12:43:32;;;;;;;;;4.60;4.20;;;;;;;;4989075;28;8872;-83
2023/05/28 12:46:00;;;;;;;;;5.40;5.40;;;;;;;;4989965;28;8865;-84
2023/05/28 12:48:27;;;;;;;;;5.00;5.00;;;;;;;;4990940;28;8878;-80
2023/05/28 12:50:56;;;;;;;;;5.40;5.40;;;;;;;;4989638;28;8881;-78
2023/05/28 12:53:26;;;;;;;;;6.00;6.00;;;;;;;;4999409;28;8940;-80
2023/05/28 12:55:53;;;;;;;;;3.80;3.40;;;;;;;;5008858;28;8858;-81
2023/05/28 12:58:23;;;;;;;;;3.80;3.80;;;;;;;;5024539;28;8920;-80
2023/05/28 13:00:55;;;;;;;;;4.00;4.00;;;;;;;;5022600;28;8784;-79
2023/05/28 13:03:22;;;;;;;;;4.40;4.40;;;;;;;;5055188;28;8864;-78
2023/05/28 13:05:53;;;;;;;;;4.80;4.40;;;;;;;;5061289;28;8839;-81
2023/05/28 13:08:21;;;;;;;;;6.20;6.20;;;;;;;;5054976;28;9013;-79
2023/05/28 13:10:49;;;;;;;;;7.00;5.20;;;;;;;;5061253;28;8958;-79
2023/05/28 13:13:16;;;;;;;;;3.80;3.80;;;;;;;;5065264;28;8937;-80
2023/05/28 13:15:44;;;;;;;;;5.60;5.60;;;;;;;;5061465;28;8863;-78
2023/05/28 13:18:12;;;;;;;;;7.20;6.60;;;;;;;;5065803;28;8975;-79
2023/05/28 13:20:40;;;;;;;;;5.00;5.00;;;;;;;;5065964;28;8852;-78
2023/05/28 13:23:07;;;;;;;;;5.20;4.00;;;;;;;;5068354;28;8845;-78
2023/05/28 13:25:37;;;;;;;;;6.00;6.00;;;;;;;;5052431;28;9583;-78
2023/05/28 13:28:04;;;;;;;;;4.00;4.00;;;;;;;;5049964;28;8867;-78
2023/05/28 13:30:31;;;;;;;;;7.20;6.00;;;;;;;;5051578;28;8889;-80
2023/05/28 13:32:58;;;;;;;;;4.80;4.80;;;;;;;;5052620;28;8886;-79
2023/05/28 13:35:26;;;;;;;;;5.60;5.60;;;;;;;;5051804;28;8851;-79
2023/05/28 13:37:55;;;;;;;;;4.80;4.80;;;;;;;;5048664;28;8898;-81
2023/05/28 13:40:24;;;;;;;;;5.00;5.00;;;;;;;;5044873;28;8857;-79
2023/05/28 13:42:52;;;;;;;;;7.60;6.00;;;;;;;;5068239;28;8853;-80
2023/05/28 13:45:20;;;;;;;;;5.80;5.00;;;;;;;;5067352;28;8867;-81
2023/05/28 13:47:48;;;;;;;;;4.40;4.20;;;;;;;;5068505;28;8837;-81
2023/05/28 13:50:19;;;;;;;;;5.40;5.40;;;;;;;;5065199;28;8859;-82
2023/05/28 13:52:47;;;;;;;;;8.00;6.40;;;;;;;;5067907;28;8868;-81
2023/05/28 13:55:15;;;;;;;;;6.40;6.40;;;;;;;;5056009;28;8867;-85
2023/05/28 13:57:43;;;;;;;;;5.40;4.00;;;;;;;;5052687;28;9265;-85
2023/05/28 14:00:17;;;;;;;;;7.60;6.40;;;;;;;;5045911;28;8834;-84
2023/05/28 14:02:44;;;;;;;;;4.20;4.20;;;;;;;;5050905;28;8861;-87
2023/05/28 14:05:13;;;;;;;;;6.20;6.20;;;;;;;;5037564;28;8917;-84
2023/05/28 14:07:40;;;;;;;;;5.60;4.20;;;;;;;;5041509;28;8939;-85
2023/05/28 14:10:09;;;;;;;;;6.60;5.00;;;;;;;;5050720;28;8945;-87
2023/05/28 14:12:36;;;;;;;;;5.00;5.00;;;;;;;;5051824;28;8860;-83
2023/05/28 14:15:04;;;;;;;;;4.60;4.60;;;;;;;;5043891;28;8832;-84
2023/05/28 14:17:33;;;;;;;;;2.20;1.00;;;;;;;;5047969;28;8840;-82
2023/05/28 14:20:04;;;;;;;;;5.20;5.20;;;;;;;;5049755;28;8921;-85
2023/05/28 14:22:31;;;;;;;;;3.00;3.00;;;;;;;;5045315;28;8915;-84
2023/05/28 14:24:59;;;;;;;;;5.20;5.00;;;;;;;;5048105;28;8828;-84
2023/05/28 14:27:26;;;;;;;;;6.60;4.00;;;;;;;;5051493;28;8947;-82
2023/05/28 14:29:59;;;;;;;;;4.20;4.20;;;;;;;;5051283;28;8836;-83
2023/05/28 14:32:27;;;;;;;;;5.00;5.00;;;;;;;;5050987;28;8775;-86
2023/05/28 14:34:55;;;;;;;;;5.00;5.00;;;;;;;;5052777;28;8892;-82
2023/05/28 14:37:27;;;;;;;;;5.80;5.80;;;;;;;;5055332;28;8850;-82
2023/05/28 14:39:55;;;;;;;;;5.60;5.00;;;;;;;;5047958;28;8855;-83
2023/05/28 14:42:25;;;;;;;;;6.00;5.40;;;;;;;;5049568;28;8834;-81